sensor_id;sensor_type;location;lat;lon;timestamp;temperature;humidity
6696;DHT22;3385;48.928;10.330;2023-11-22T00:00:09;4.30;99.90
6696;DHT22;3385;48.928;10.330;2023-11-22T00:02:39;4.30;99.90
6696;DHT22;3385;48.928;10.330;2023-11-22T00:05:05;4.20;99.90
6696;DHT22;3385;48.928;10.330;2023-11-22T00:07:32;4.30;99.90
6696;DHT22;3385;48.928;10.330;2023-11-22T00:09:57;4.40;99.90
6696;DHT22;3385;48.928;10.330;2023-11-22T00:12:24;3.80;99.90
6696;DHT22;3385;48.928;10.330;2023-11-22T00:14:50;4.40;99.90
6696;DHT22;3385;48.928;10.330;2023-11-22T00:17:17;4.10;99.90
6696;DHT22;3385;48.928;10.330;2023-11-22T00:19:46;4.20;99.90
6696;DHT22;3385;48.928;10.330;2023-11-22T00:22:12;4.20;99.90
6696;DHT22;3385;48.928;10.330;2023-11-22T00:24:41;4.00;99.90
6696;DHT22;3385;48.928;10.330;2023-11-22T00:27:07;4.10;99.90
6696;DHT22;3385;48.928;10.330;2023-11-22T00:29:33;4.00;99.90
6696;DHT22;3385;48.928;10.330;2023-11-22T00:32:00;4.00;99.90
6696;DHT22;3385;48.928;10.330;2023-11-22T00:34:26;4.00;99.90
6696;DHT22;3385;48.928;10.330;2023-11-22T00:36:52;3.90;99.90
6696;DHT22;3385;48.928;10.330;2023-11-22T00:39:18;3.90;99.90
6696;DHT22;3385;48.928;10.330;2023-11-22T00:41:44;3.90;99.90
6696;DHT22;3385;48.928;10.330;2023-11-22T00:44:11;3.90;99.90
6696;DHT22;3385;48.928;10.330;2023-11-22T00:46:36;3.80;99.90
6696;DHT22;3385;48.928;10.330;2023-11-22T00:49:05;3.80;99.90
6696;DHT22;3385;48.928;10.330;2023-11-22T00:51:31;3.80;99.90
6696;DHT22;3385;48.928;10.330;2023-11-22T00:54:00;3.70;99.90
6696;DHT22;3385;48.928;10.330;2023-11-22T00:56:26;3.70;99.90
6696;DHT22;3385;48.928;10.330;2023-11-22T00:58:53;3.70;99.90
6696;DHT22;3385;48.928;10.330;2023-11-22T01:01:22;3.70;99.90
6696;DHT22;3385;48.928;10.330;2023-11-22T01:03:48;3.80;99.90
6696;DHT22;3385;48.928;10.330;2023-11-22T01:06:14;3.80;99.90
6696;DHT22;3385;48.928;10.330;2023-11-22T01:08:40;3.70;99.90
6696;DHT22;3385;48.928;10.330;2023-11-22T01:11:06;3.70;99.90
6696;DHT22;3385;48.928;10.330;2023-11-22T01:13:32;3.60;99.90
6696;DHT22;3385;48.928;10.330;2023-11-22T01:15:58;3.60;99.90
6696;DHT22;3385;48.928;10.330;2023-11-22T01:18:24;3.70;99.90
6696;DHT22;3385;48.928;10.330;2023-11-22T01:20:50;3.60;99.90
6696;DHT22;3385;48.928;10.330;2023-11-22T01:23:16;3.60;99.90
6696;DHT22;3385;48.928;10.330;2023-11-22T01:25:42;3.50;99.90
6696;DHT22;3385;48.928;10.330;2023-11-22T01:28:07;3.50;99.90
6696;DHT22;3385;48.928;10.330;2023-11-22T01:30:36;3.60;99.90
6696;DHT22;3385;48.928;10.330;2023-11-22T01:33:03;3.50;99.90
6696;DHT22;3385;48.928;10.330;2023-11-22T01:35:29;3.50;99.90
6696;DHT22;3385;48.928;10.330;2023-11-22T01:37:55;3.40;99.90
6696;DHT22;3385;48.928;10.330;2023-11-22T01:40:23;3.40;99.90
6696;DHT22;3385;48.928;10.330;2023-11-22T01:42:49;3.30;99.90
6696;DHT22;3385;48.928;10.330;2023-11-22T01:45:14;3.40;99.90
6696;DHT22;3385;48.928;10.330;2023-11-22T01:47:40;3.30;99.90
6696;DHT22;3385;48.928;10.330;2023-11-22T01:50:09;3.20;99.90
6696;DHT22;3385;48.928;10.330;2023-11-22T01:52:35;3.20;99.90
6696;DHT22;3385;48.928;10.330;2023-11-22T01:55:02;3.20;99.90
6696;DHT22;3385;48.928;10.330;2023-11-22T01:57:31;3.10;99.90
6696;DHT22;3385;48.928;10.330;2023-11-22T02:00:01;3.00;99.90
6696;DHT22;3385;48.928;10.330;2023-11-22T02:02:27;3.10;99.90
6696;DHT22;3385;48.928;10.330;2023-11-22T02:04:53;3.10;99.90
6696;DHT22;3385;48.928;10.330;2023-11-22T02:07:19;3.10;99.90
6696;DHT22;3385;48.928;10.330;2023-11-22T02:09:45;3.00;99.90
6696;DHT22;3385;48.928;10.330;2023-11-22T02:12:11;3.00;99.90
6696;DHT22;3385;48.928;10.330;2023-11-22T02:14:37;2.90;99.90
6696;DHT22;3385;48.928;10.330;2023-11-22T02:17:04;2.60;99.90
6696;DHT22;3385;48.928;10.330;2023-11-22T02:19:29;2.70;99.90
6696;DHT22;3385;48.928;10.330;2023-11-22T02:21:58;2.60;99.90
6696;DHT22;3385;48.928;10.330;2023-11-22T02:24:24;2.60;99.90
6696;DHT22;3385;48.928;10.330;2023-11-22T02:26:52;2.60;99.90
6696;DHT22;3385;48.928;10.330;2023-11-22T02:29:17;2.50;99.90
6696;DHT22;3385;48.928;10.330;2023-11-22T02:31:43;2.50;99.90
6696;DHT22;3385;48.928;10.330;2023-11-22T02:34:09;2.30;99.90
6696;DHT22;3385;48.928;10.330;2023-11-22T02:36:35;2.30;99.90
6696;DHT22;3385;48.928;10.330;2023-11-22T02:39:01;2.40;99.90
6696;DHT22;3385;48.928;10.330;2023-11-22T02:41:27;2.30;99.90
6696;DHT22;3385;48.928;10.330;2023-11-22T02:43:55;2.20;99.90
6696;DHT22;3385;48.928;10.330;2023-11-22T02:46:21;2.20;99.90
6696;DHT22;3385;48.928;10.330;2023-11-22T02:48:47;2.20;99.90
6696;DHT22;3385;48.928;10.330;2023-11-22T02:51:12;2.20;99.90
6696;DHT22;3385;48.928;10.330;2023-11-22T02:53:39;2.20;99.90
6696;DHT22;3385;48.928;10.330;2023-11-22T02:56:09;2.10;99.90
6696;DHT22;3385;48.928;10.330;2023-11-22T02:58:36;2.10;99.90
6696;DHT22;3385;48.928;10.330;2023-11-22T03:01:01;1.90;99.90
6696;DHT22;3385;48.928;10.330;2023-11-22T03:03:27;1.90;99.90
6696;DHT22;3385;48.928;10.330;2023-11-22T03:05:54;2.00;99.90
6696;DHT22;3385;48.928;10.330;2023-11-22T03:08:20;1.90;99.90
6696;DHT22;3385;48.928;10.330;2023-11-22T03:10:45;1.90;99.90
6696;DHT22;3385;48.928;10.330;2023-11-22T03:13:11;1.90;99.90
6696;DHT22;3385;48.928;10.330;2023-11-22T03:15:38;1.80;99.90
6696;DHT22;3385;48.928;10.330;2023-11-22T03:18:04;1.80;99.90
6696;DHT22;3385;48.928;10.330;2023-11-22T03:20:32;1.80;99.90
6696;DHT22;3385;48.928;10.330;2023-11-22T03:22:58;1.90;99.90
6696;DHT22;3385;48.928;10.330;2023-11-22T03:25:24;1.90;99.90
6696;DHT22;3385;48.928;10.330;2023-11-22T03:27:50;1.90;99.90
6696;DHT22;3385;48.928;10.330;2023-11-22T03:30:15;1.80;99.90
6696;DHT22;3385;48.928;10.330;2023-11-22T03:32:41;1.80;99.90
6696;DHT22;3385;48.928;10.330;2023-11-22T03:35:07;1.80;99.90
6696;DHT22;3385;48.928;10.330;2023-11-22T03:37:34;1.80;99.90
6696;DHT22;3385;48.928;10.330;2023-11-22T03:40:00;1.80;99.90
6696;DHT22;3385;48.928;10.330;2023-11-22T03:42:26;1.90;99.90
6696;DHT22;3385;48.928;10.330;2023-11-22T03:44:54;1.90;99.90
6696;DHT22;3385;48.928;10.330;2023-11-22T03:47:20;1.90;99.90
6696;DHT22;3385;48.928;10.330;2023-11-22T03:49:46;1.80;99.90
6696;DHT22;3385;48.928;10.330;2023-11-22T03:52:12;1.90;99.90
6696;DHT22;3385;48.928;10.330;2023-11-22T03:54:38;1.80;99.90
6696;DHT22;3385;48.928;10.330;2023-11-22T03:57:05;1.80;99.90
6696;DHT22;3385;48.928;10.330;2023-11-22T03:59:30;1.80;99.90
6696;DHT22;3385;48.928;10.330;2023-11-22T04:01:56;1.80;99.90
6696;DHT22;3385;48.928;10.330;2023-11-22T04:04:23;1.80;99.90
6696;DHT22;3385;48.928;10.330;2023-11-22T04:06:48;1.80;99.90
6696;DHT22;3385;48.928;10.330;2023-11-22T04:09:15;1.80;99.90
6696;DHT22;3385;48.928;10.330;2023-11-22T04:11:44;1.70;99.90
6696;DHT22;3385;48.928;10.330;2023-11-22T04:14:09;1.70;99.90
6696;DHT22;3385;48.928;10.330;2023-11-22T04:16:35;1.80;99.90
6696;DHT22;3385;48.928;10.330;2023-11-22T04:19:01;1.80;99.90
6696;DHT22;3385;48.928;10.330;2023-11-22T04:21:27;1.80;99.90
6696;DHT22;3385;48.928;10.330;2023-11-22T04:23:53;1.70;99.90
6696;DHT22;3385;48.928;10.330;2023-11-22T04:26:18;1.60;99.90
6696;DHT22;3385;48.928;10.330;2023-11-22T04:28:45;1.80;99.90
6696;DHT22;3385;48.928;10.330;2023-11-22T04:31:11;1.80;99.90
6696;DHT22;3385;48.928;10.330;2023-11-22T04:33:38;1.70;99.90
6696;DHT22;3385;48.928;10.330;2023-11-22T04:36:04;1.70;99.90
6696;DHT22;3385;48.928;10.330;2023-11-22T04:38:30;1.80;99.90
6696;DHT22;3385;48.928;10.330;2023-11-22T04:40:56;1.80;99.90
6696;DHT22;3385;48.928;10.330;2023-11-22T04:43:22;1.70;99.90
6696;DHT22;3385;48.928;10.330;2023-11-22T04:45:49;1.70;99.90
6696;DHT22;3385;48.928;10.330;2023-11-22T04:48:15;1.70;99.90
6696;DHT22;3385;48.928;10.330;2023-11-22T04:50:41;1.60;99.90
6696;DHT22;3385;48.928;10.330;2023-11-22T04:53:09;1.50;99.90
6696;DHT22;3385;48.928;10.330;2023-11-22T04:55:35;1.50;99.90
6696;DHT22;3385;48.928;10.330;2023-11-22T04:58:01;1.40;99.90
6696;DHT22;3385;48.928;10.330;2023-11-22T05:00:27;1.50;99.90
6696;DHT22;3385;48.928;10.330;2023-11-22T05:02:52;1.50;99.90
6696;DHT22;3385;48.928;10.330;2023-11-22T05:05:20;1.50;99.90
6696;DHT22;3385;48.928;10.330;2023-11-22T05:07:46;1.60;99.90
6696;DHT22;3385;48.928;10.330;2023-11-22T05:10:13;1.50;99.90
6696;DHT22;3385;48.928;10.330;2023-11-22T05:12:39;1.60;99.90
6696;DHT22;3385;48.928;10.330;2023-11-22T05:15:06;1.40;99.90
6696;DHT22;3385;48.928;10.330;2023-11-22T05:17:32;1.40;99.90
6696;DHT22;3385;48.928;10.330;2023-11-22T05:19:58;1.40;99.90
6696;DHT22;3385;48.928;10.330;2023-11-22T05:22:23;1.40;99.90
6696;DHT22;3385;48.928;10.330;2023-11-22T05:24:49;1.40;99.90
6696;DHT22;3385;48.928;10.330;2023-11-22T05:27:15;1.40;99.90
6696;DHT22;3385;48.928;10.330;2023-11-22T05:29:41;1.50;99.90
6696;DHT22;3385;48.928;10.330;2023-11-22T05:32:08;1.40;99.90
6696;DHT22;3385;48.928;10.330;2023-11-22T05:34:33;1.50;99.90
6696;DHT22;3385;48.928;10.330;2023-11-22T05:36:59;1.40;99.90
6696;DHT22;3385;48.928;10.330;2023-11-22T05:39:25;1.50;99.90
6696;DHT22;3385;48.928;10.330;2023-11-22T05:41:52;1.50;99.90
6696;DHT22;3385;48.928;10.330;2023-11-22T05:44:18;1.50;99.90
6696;DHT22;3385;48.928;10.330;2023-11-22T05:46:43;1.40;99.90
6696;DHT22;3385;48.928;10.330;2023-11-22T05:49:09;1.60;99.90
6696;DHT22;3385;48.928;10.330;2023-11-22T05:51:38;1.50;99.90
6696;DHT22;3385;48.928;10.330;2023-11-22T05:54:04;1.40;99.90
6696;DHT22;3385;48.928;10.330;2023-11-22T05:56:30;1.40;99.90
6696;DHT22;3385;48.928;10.330;2023-11-22T05:58:57;1.50;99.90
6696;DHT22;3385;48.928;10.330;2023-11-22T06:01:23;1.50;99.90
6696;DHT22;3385;48.928;10.330;2023-11-22T06:03:49;1.50;99.90
6696;DHT22;3385;48.928;10.330;2023-11-22T06:06:14;1.50;99.90
6696;DHT22;3385;48.928;10.330;2023-11-22T06:08:40;1.50;99.90
6696;DHT22;3385;48.928;10.330;2023-11-22T06:11:06;1.50;99.90
6696;DHT22;3385;48.928;10.330;2023-11-22T06:13:33;1.50;99.90
6696;DHT22;3385;48.928;10.330;2023-11-22T06:15:58;1.50;99.90
6696;DHT22;3385;48.928;10.330;2023-11-22T06:18:24;1.40;99.90
6696;DHT22;3385;48.928;10.330;2023-11-22T06:20:56;1.40;99.90
6696;DHT22;3385;48.928;10.330;2023-11-22T06:23:22;1.50;99.90
6696;DHT22;3385;48.928;10.330;2023-11-22T06:25:48;1.40;99.90
6696;DHT22;3385;48.928;10.330;2023-11-22T06:28:14;1.50;99.90
6696;DHT22;3385;48.928;10.330;2023-11-22T06:30:39;1.40;99.90
6696;DHT22;3385;48.928;10.330;2023-11-22T06:33:05;1.40;99.90
6696;DHT22;3385;48.928;10.330;2023-11-22T06:35:31;1.40;99.90
6696;DHT22;3385;48.928;10.330;2023-11-22T06:37:56;1.30;99.90
6696;DHT22;3385;48.928;10.330;2023-11-22T06:40:22;1.40;99.90
6696;DHT22;3385;48.928;10.330;2023-11-22T06:42:48;1.40;99.90
6696;DHT22;3385;48.928;10.330;2023-11-22T06:45:14;1.30;99.90
6696;DHT22;3385;48.928;10.330;2023-11-22T06:47:41;1.50;99.90
6696;DHT22;3385;48.928;10.330;2023-11-22T06:50:08;1.30;99.90
6696;DHT22;3385;48.928;10.330;2023-11-22T06:52:41;1.40;99.90
6696;DHT22;3385;48.928;10.330;2023-11-22T06:55:08;1.40;99.90
6696;DHT22;3385;48.928;10.330;2023-11-22T06:57:34;1.30;99.90
6696;DHT22;3385;48.928;10.330;2023-11-22T07:00:00;1.30;99.90
6696;DHT22;3385;48.928;10.330;2023-11-22T07:02:33;1.50;99.90
6696;DHT22;3385;48.928;10.330;2023-11-22T07:04:58;1.40;99.90
6696;DHT22;3385;48.928;10.330;2023-11-22T07:07:28;1.40;99.90
6696;DHT22;3385;48.928;10.330;2023-11-22T07:09:55;1.50;99.90
6696;DHT22;3385;48.928;10.330;2023-11-22T07:12:24;1.50;99.90
6696;DHT22;3385;48.928;10.330;2023-11-22T07:14:50;1.50;99.90
6696;DHT22;3385;48.928;10.330;2023-11-22T07:17:16;1.40;99.90
6696;DHT22;3385;48.928;10.330;2023-11-22T07:19:43;1.50;99.90
6696;DHT22;3385;48.928;10.330;2023-11-22T07:22:15;1.40;99.90
6696;DHT22;3385;48.928;10.330;2023-11-22T07:24:42;1.30;99.90
6696;DHT22;3385;48.928;10.330;2023-11-22T07:27:13;1.50;99.90
6696;DHT22;3385;48.928;10.330;2023-11-22T07:29:43;1.50;99.90
6696;DHT22;3385;48.928;10.330;2023-11-22T07:32:09;1.40;99.90
6696;DHT22;3385;48.928;10.330;2023-11-22T07:34:35;1.50;99.90
6696;DHT22;3385;48.928;10.330;2023-11-22T07:37:02;1.50;99.90
6696;DHT22;3385;48.928;10.330;2023-11-22T07:39:28;1.50;99.90
6696;DHT22;3385;48.928;10.330;2023-11-22T07:41:55;1.50;99.90
6696;DHT22;3385;48.928;10.330;2023-11-22T07:44:23;1.60;99.90
6696;DHT22;3385;48.928;10.330;2023-11-22T07:46:50;1.60;99.90
6696;DHT22;3385;48.928;10.330;2023-11-22T07:49:18;1.50;99.90
6696;DHT22;3385;48.928;10.330;2023-11-22T07:51:44;1.60;99.90
6696;DHT22;3385;48.928;10.330;2023-11-22T07:54:11;1.60;99.90
6696;DHT22;3385;48.928;10.330;2023-11-22T07:56:41;1.60;99.90
6696;DHT22;3385;48.928;10.330;2023-11-22T07:59:12;1.70;99.90
6696;DHT22;3385;48.928;10.330;2023-11-22T08:01:38;1.50;99.90
6696;DHT22;3385;48.928;10.330;2023-11-22T08:04:05;1.60;99.90
6696;DHT22;3385;48.928;10.330;2023-11-22T08:06:32;1.50;99.90
6696;DHT22;3385;48.928;10.330;2023-11-22T08:08:58;1.60;99.90
6696;DHT22;3385;48.928;10.330;2023-11-22T08:11:27;1.60;99.90
6696;DHT22;3385;48.928;10.330;2023-11-22T08:13:54;1.70;99.90
6696;DHT22;3385;48.928;10.330;2023-11-22T08:16:27;1.70;99.90
6696;DHT22;3385;48.928;10.330;2023-11-22T08:18:53;1.80;99.90
6696;DHT22;3385;48.928;10.330;2023-11-22T08:21:19;1.90;99.90
6696;DHT22;3385;48.928;10.330;2023-11-22T08:23:46;1.80;99.90
6696;DHT22;3385;48.928;10.330;2023-11-22T08:26:15;1.70;99.90
6696;DHT22;3385;48.928;10.330;2023-11-22T08:28:41;1.80;99.90
6696;DHT22;3385;48.928;10.330;2023-11-22T08:31:07;1.90;99.90
6696;DHT22;3385;48.928;10.330;2023-11-22T08:33:36;2.00;99.90
6696;DHT22;3385;48.928;10.330;2023-11-22T08:36:02;1.80;99.90
6696;DHT22;3385;48.928;10.330;2023-11-22T08:38:30;1.90;99.90
6696;DHT22;3385;48.928;10.330;2023-11-22T08:41:01;1.80;99.90
6696;DHT22;3385;48.928;10.330;2023-11-22T08:43:28;1.90;99.90
6696;DHT22;3385;48.928;10.330;2023-11-22T08:45:54;1.80;99.90
6696;DHT22;3385;48.928;10.330;2023-11-22T08:48:19;1.70;99.90
6696;DHT22;3385;48.928;10.330;2023-11-22T08:50:45;1.70;99.90
6696;DHT22;3385;48.928;10.330;2023-11-22T08:53:12;1.80;99.90
6696;DHT22;3385;48.928;10.330;2023-11-22T08:55:38;1.80;99.90
6696;DHT22;3385;48.928;10.330;2023-11-22T08:58:04;1.70;99.90
6696;DHT22;3385;48.928;10.330;2023-11-22T09:00:30;1.70;99.90
6696;DHT22;3385;48.928;10.330;2023-11-22T09:02:58;1.70;99.90
6696;DHT22;3385;48.928;10.330;2023-11-22T09:05:24;1.70;99.90
6696;DHT22;3385;48.928;10.330;2023-11-22T09:07:50;1.70;99.90
6696;DHT22;3385;48.928;10.330;2023-11-22T09:10:17;1.60;99.90
6696;DHT22;3385;48.928;10.330;2023-11-22T09:12:45;1.70;99.90
6696;DHT22;3385;48.928;10.330;2023-11-22T09:15:12;1.80;99.90
6696;DHT22;3385;48.928;10.330;2023-11-22T09:17:51;1.80;99.90
6696;DHT22;3385;48.928;10.330;2023-11-22T09:20:19;2.00;99.90
6696;DHT22;3385;48.928;10.330;2023-11-22T09:22:50;1.80;99.90
6696;DHT22;3385;48.928;10.330;2023-11-22T09:25:23;1.80;99.90
6696;DHT22;3385;48.928;10.330;2023-11-22T09:27:54;1.70;99.90
6696;DHT22;3385;48.928;10.330;2023-11-22T09:30:27;1.60;99.90
6696;DHT22;3385;48.928;10.330;2023-11-22T09:33:09;1.70;99.90
6696;DHT22;3385;48.928;10.330;2023-11-22T09:35:36;1.60;99.90
6696;DHT22;3385;48.928;10.330;2023-11-22T09:38:07;1.60;99.90
6696;DHT22;3385;48.928;10.330;2023-11-22T09:40:44;-2.30;99.90
6696;DHT22;3385;48.928;10.330;2023-11-22T09:43:11;1.40;99.90
6696;DHT22;3385;48.928;10.330;2023-11-22T09:45:37;1.50;99.90
6696;DHT22;3385;48.928;10.330;2023-11-22T09:48:20;1.40;99.90
6696;DHT22;3385;48.928;10.330;2023-11-22T09:51:15;1.50;99.90
6696;DHT22;3385;48.928;10.330;2023-11-22T09:53:56;1.50;99.90
6696;DHT22;3385;48.928;10.330;2023-11-22T09:56:23;1.40;99.90
6696;DHT22;3385;48.928;10.330;2023-11-22T09:58:55;1.40;99.90
6696;DHT22;3385;48.928;10.330;2023-11-22T10:01:23;1.50;99.90
6696;DHT22;3385;48.928;10.330;2023-11-22T10:03:49;1.40;99.90
6696;DHT22;3385;48.928;10.330;2023-11-22T10:06:17;1.50;99.90
6696;DHT22;3385;48.928;10.330;2023-11-22T10:08:43;1.40;99.90
6696;DHT22;3385;48.928;10.330;2023-11-22T10:11:16;1.40;99.90
6696;DHT22;3385;48.928;10.330;2023-11-22T10:13:49;1.50;99.90
6696;DHT22;3385;48.928;10.330;2023-11-22T10:16:17;1.50;99.90
6696;DHT22;3385;48.928;10.330;2023-11-22T10:18:45;1.50;99.90
6696;DHT22;3385;48.928;10.330;2023-11-22T10:21:28;1.50;99.90
6696;DHT22;3385;48.928;10.330;2023-11-22T10:24:04;1.40;99.90
6696;DHT22;3385;48.928;10.330;2023-11-22T10:26:35;1.40;99.90
6696;DHT22;3385;48.928;10.330;2023-11-22T10:29:01;1.50;99.90
6696;DHT22;3385;48.928;10.330;2023-11-22T10:31:28;1.50;99.90
6696;DHT22;3385;48.928;10.330;2023-11-22T10:33:54;1.40;99.90
6696;DHT22;3385;48.928;10.330;2023-11-22T10:36:23;1.40;99.90
6696;DHT22;3385;48.928;10.330;2023-11-22T10:38:49;1.20;99.90
6696;DHT22;3385;48.928;10.330;2023-11-22T10:41:16;1.30;99.90
6696;DHT22;3385;48.928;10.330;2023-11-22T10:43:44;1.50;99.90
6696;DHT22;3385;48.928;10.330;2023-11-22T10:46:12;1.30;99.90
6696;DHT22;3385;48.928;10.330;2023-11-22T10:48:38;1.40;99.90
6696;DHT22;3385;48.928;10.330;2023-11-22T10:51:05;1.30;99.90
6696;DHT22;3385;48.928;10.330;2023-11-22T10:53:36;1.50;99.90
6696;DHT22;3385;48.928;10.330;2023-11-22T10:56:18;1.30;99.90
6696;DHT22;3385;48.928;10.330;2023-11-22T10:58:50;1.30;99.90
6696;DHT22;3385;48.928;10.330;2023-11-22T11:01:20;1.40;99.90
6696;DHT22;3385;48.928;10.330;2023-11-22T11:03:56;1.30;99.90
6696;DHT22;3385;48.928;10.330;2023-11-22T11:06:32;1.40;99.90
6696;DHT22;3385;48.928;10.330;2023-11-22T11:09:04;1.40;99.90
6696;DHT22;3385;48.928;10.330;2023-11-22T11:11:37;1.50;99.90
6696;DHT22;3385;48.928;10.330;2023-11-22T11:14:05;1.60;99.90
6696;DHT22;3385;48.928;10.330;2023-11-22T11:16:35;1.50;99.90
6696;DHT22;3385;48.928;10.330;2023-11-22T11:19:04;1.60;99.90
6696;DHT22;3385;48.928;10.330;2023-11-22T11:21:32;1.70;99.90
6696;DHT22;3385;48.928;10.330;2023-11-22T11:23:58;1.70;99.90
6696;DHT22;3385;48.928;10.330;2023-11-22T11:26:28;1.60;99.90
6696;DHT22;3385;48.928;10.330;2023-11-22T11:28:57;1.60;99.90
6696;DHT22;3385;48.928;10.330;2023-11-22T11:31:23;1.90;99.90
6696;DHT22;3385;48.928;10.330;2023-11-22T11:36:26;1.90;99.90
6696;DHT22;3385;48.928;10.330;2023-11-22T11:38:56;1.90;99.90
6696;DHT22;3385;48.928;10.330;2023-11-22T11:41:26;1.80;99.90
6696;DHT22;3385;48.928;10.330;2023-11-22T11:43:53;1.70;99.90
6696;DHT22;3385;48.928;10.330;2023-11-22T11:46:19;1.80;99.90
6696;DHT22;3385;48.928;10.330;2023-11-22T11:48:50;1.70;99.90
6696;DHT22;3385;48.928;10.330;2023-11-22T11:51:27;1.70;99.90
6696;DHT22;3385;48.928;10.330;2023-11-22T11:53:54;1.60;99.90
6696;DHT22;3385;48.928;10.330;2023-11-22T11:56:20;1.60;99.90
6696;DHT22;3385;48.928;10.330;2023-11-22T11:58:47;1.60;99.90
6696;DHT22;3385;48.928;10.330;2023-11-22T12:01:15;1.70;99.90
6696;DHT22;3385;48.928;10.330;2023-11-22T12:03:42;1.60;99.90
6696;DHT22;3385;48.928;10.330;2023-11-22T12:06:20;1.50;99.90
6696;DHT22;3385;48.928;10.330;2023-11-22T12:08:46;1.60;99.90
6696;DHT22;3385;48.928;10.330;2023-11-22T12:11:13;1.70;99.90
6696;DHT22;3385;48.928;10.330;2023-11-22T12:13:41;1.40;99.90
6696;DHT22;3385;48.928;10.330;2023-11-22T12:16:14;1.40;99.90
6696;DHT22;3385;48.928;10.330;2023-11-22T12:18:41;1.40;99.90
6696;DHT22;3385;48.928;10.330;2023-11-22T12:21:08;1.10;99.90
6696;DHT22;3385;48.928;10.330;2023-11-22T12:23:38;1.20;99.90
6696;DHT22;3385;48.928;10.330;2023-11-22T12:26:10;1.30;99.90
6696;DHT22;3385;48.928;10.330;2023-11-22T12:28:39;1.40;99.90
6696;DHT22;3385;48.928;10.330;2023-11-22T12:31:10;1.40;99.90
6696;DHT22;3385;48.928;10.330;2023-11-22T12:33:36;1.50;99.90
6696;DHT22;3385;48.928;10.330;2023-11-22T12:36:03;1.50;99.90
6696;DHT22;3385;48.928;10.330;2023-11-22T12:38:29;1.40;99.90
6696;DHT22;3385;48.928;10.330;2023-11-22T12:40:58;1.50;99.90
6696;DHT22;3385;48.928;10.330;2023-11-22T12:43:24;1.60;99.90
6696;DHT22;3385;48.928;10.330;2023-11-22T12:46:02;1.60;99.90
6696;DHT22;3385;48.928;10.330;2023-11-22T12:48:28;1.70;99.90
6696;DHT22;3385;48.928;10.330;2023-11-22T12:50:59;1.70;99.90
6696;DHT22;3385;48.928;10.330;2023-11-22T12:53:25;1.60;99.90
6696;DHT22;3385;48.928;10.330;2023-11-22T12:55:54;1.70;99.90
6696;DHT22;3385;48.928;10.330;2023-11-22T12:58:21;1.70;99.90
6696;DHT22;3385;48.928;10.330;2023-11-22T13:00:49;1.60;99.90
6696;DHT22;3385;48.928;10.330;2023-11-22T13:03:15;1.60;99.90
6696;DHT22;3385;48.928;10.330;2023-11-22T13:05:43;1.50;99.90
6696;DHT22;3385;48.928;10.330;2023-11-22T13:08:10;1.60;99.90
6696;DHT22;3385;48.928;10.330;2023-11-22T13:10:46;1.60;99.90
6696;DHT22;3385;48.928;10.330;2023-11-22T13:13:13;1.60;99.90
6696;DHT22;3385;48.928;10.330;2023-11-22T13:15:39;1.60;99.90
6696;DHT22;3385;48.928;10.330;2023-11-22T13:18:06;1.60;99.90
6696;DHT22;3385;48.928;10.330;2023-11-22T13:20:34;1.50;99.90
6696;DHT22;3385;48.928;10.330;2023-11-22T13:23:00;1.70;99.90
6696;DHT22;3385;48.928;10.330;2023-11-22T13:25:28;1.60;99.90
6696;DHT22;3385;48.928;10.330;2023-11-22T13:27:54;1.60;99.90
6696;DHT22;3385;48.928;10.330;2023-11-22T13:30:22;1.60;99.90
6696;DHT22;3385;48.928;10.330;2023-11-22T13:32:57;1.50;99.90
6696;DHT22;3385;48.928;10.330;2023-11-22T13:35:26;1.60;99.90
6696;DHT22;3385;48.928;10.330;2023-11-22T13:37:57;1.70;99.90
6696;DHT22;3385;48.928;10.330;2023-11-22T13:40:23;1.60;99.90
6696;DHT22;3385;48.928;10.330;2023-11-22T13:42:51;1.70;99.90
6696;DHT22;3385;48.928;10.330;2023-11-22T13:45:20;1.50;99.90
6696;DHT22;3385;48.928;10.330;2023-11-22T13:47:50;1.70;99.90
6696;DHT22;3385;48.928;10.330;2023-11-22T13:50:17;1.60;99.90
6696;DHT22;3385;48.928;10.330;2023-11-22T13:52:51;1.50;99.90
6696;DHT22;3385;48.928;10.330;2023-11-22T13:55:17;1.30;99.90
6696;DHT22;3385;48.928;10.330;2023-11-22T13:57:52;1.30;99.90
6696;DHT22;3385;48.928;10.330;2023-11-22T14:00:19;1.40;99.90
6696;DHT22;3385;48.928;10.330;2023-11-22T14:02:53;1.40;99.90
6696;DHT22;3385;48.928;10.330;2023-11-22T14:05:22;1.40;99.90
6696;DHT22;3385;48.928;10.330;2023-11-22T14:07:48;1.30;99.90
6696;DHT22;3385;48.928;10.330;2023-11-22T14:10:14;1.30;99.90
6696;DHT22;3385;48.928;10.330;2023-11-22T14:12:42;1.20;99.90
6696;DHT22;3385;48.928;10.330;2023-11-22T14:15:09;1.30;99.90
6696;DHT22;3385;48.928;10.330;2023-11-22T14:17:36;1.30;99.90
6696;DHT22;3385;48.928;10.330;2023-11-22T14:20:03;1.40;99.90
6696;DHT22;3385;48.928;10.330;2023-11-22T14:22:30;1.50;99.90
6696;DHT22;3385;48.928;10.330;2023-11-22T14:24:57;1.60;99.90
6696;DHT22;3385;48.928;10.330;2023-11-22T14:27:23;1.60;99.90
6696;DHT22;3385;48.928;10.330;2023-11-22T14:29:48;1.60;99.90
6696;DHT22;3385;48.928;10.330;2023-11-22T14:32:16;1.60;99.90
6696;DHT22;3385;48.928;10.330;2023-11-22T14:34:42;1.70;99.90
6696;DHT22;3385;48.928;10.330;2023-11-22T14:37:12;1.70;99.90
6696;DHT22;3385;48.928;10.330;2023-11-22T14:39:38;1.70;99.90
6696;DHT22;3385;48.928;10.330;2023-11-22T14:42:04;1.70;99.90
6696;DHT22;3385;48.928;10.330;2023-11-22T14:44:36;1.70;99.90
6696;DHT22;3385;48.928;10.330;2023-11-22T14:47:03;1.60;99.90
6696;DHT22;3385;48.928;10.330;2023-11-22T14:49:38;1.70;99.90
6696;DHT22;3385;48.928;10.330;2023-11-22T14:52:05;1.80;99.90
6696;DHT22;3385;48.928;10.330;2023-11-22T14:54:30;1.70;99.90
6696;DHT22;3385;48.928;10.330;2023-11-22T14:56:56;1.70;99.90
6696;DHT22;3385;48.928;10.330;2023-11-22T14:59:28;1.70;99.90
6696;DHT22;3385;48.928;10.330;2023-11-22T15:01:55;1.70;99.90
6696;DHT22;3385;48.928;10.330;2023-11-22T15:04:23;1.60;99.90
6696;DHT22;3385;48.928;10.330;2023-11-22T15:06:49;1.60;99.90
6696;DHT22;3385;48.928;10.330;2023-11-22T15:09:16;1.50;99.90
6696;DHT22;3385;48.928;10.330;2023-11-22T15:11:42;1.50;99.90
6696;DHT22;3385;48.928;10.330;2023-11-22T15:14:08;1.50;99.90
6696;DHT22;3385;48.928;10.330;2023-11-22T15:16:34;1.50;99.90
6696;DHT22;3385;48.928;10.330;2023-11-22T15:19:02;1.40;99.90
6696;DHT22;3385;48.928;10.330;2023-11-22T15:21:30;1.30;99.90
6696;DHT22;3385;48.928;10.330;2023-11-22T15:23:56;1.40;99.90
6696;DHT22;3385;48.928;10.330;2023-11-22T15:26:22;1.40;99.90
6696;DHT22;3385;48.928;10.330;2023-11-22T15:28:48;1.40;99.90
6696;DHT22;3385;48.928;10.330;2023-11-22T15:31:17;1.30;99.90
6696;DHT22;3385;48.928;10.330;2023-11-22T15:33:44;1.30;99.90
6696;DHT22;3385;48.928;10.330;2023-11-22T15:36:11;1.30;99.90
6696;DHT22;3385;48.928;10.330;2023-11-22T15:38:37;1.40;99.90
6696;DHT22;3385;48.928;10.330;2023-11-22T15:41:02;1.30;99.90
6696;DHT22;3385;48.928;10.330;2023-11-22T15:43:29;1.30;99.90
6696;DHT22;3385;48.928;10.330;2023-11-22T15:45:55;1.20;99.90
6696;DHT22;3385;48.928;10.330;2023-11-22T15:48:21;1.30;99.90
6696;DHT22;3385;48.928;10.330;2023-11-22T15:50:48;1.30;99.90
6696;DHT22;3385;48.928;10.330;2023-11-22T15:53:13;1.30;99.90
6696;DHT22;3385;48.928;10.330;2023-11-22T15:55:39;1.40;99.90
6696;DHT22;3385;48.928;10.330;2023-11-22T15:58:05;1.30;99.90
6696;DHT22;3385;48.928;10.330;2023-11-22T16:00:32;1.30;99.90
6696;DHT22;3385;48.928;10.330;2023-11-22T16:02:57;1.30;99.90
6696;DHT22;3385;48.928;10.330;2023-11-22T16:05:23;1.30;99.90